sensor_id;sensor_type;location;lat;lon;timestamp;pressure;altitude;pressure_sealevel;temperature;humidity
14269;BME280;7218;51.480;7.006;2022-07-10T00:00:07;101973.41;;;17.89;74.57
14269;BME280;7218;51.480;7.006;2022-07-10T00:02:34;101967.31;;;17.87;74.62
14269;BME280;7218;51.480;7.006;2022-07-10T00:05:01;101955.91;;;17.85;73.70
14269;BME280;7218;51.480;7.006;2022-07-10T00:07:29;101965.88;;;17.72;74.14
14269;BME280;7218;51.480;7.006;2022-07-10T00:09:56;101961.97;;;17.88;74.04
14269;BME280;7218;51.480;7.006;2022-07-10T00:12:23;101968.78;;;17.98;73.42
14269;BME280;7218;51.480;7.006;2022-07-10T00:14:51;101961.72;;;18.00;73.89
14269;BME280;7218;51.480;7.006;2022-07-10T00:17:18;101958.53;;;17.86;74.42
14269;BME280;7218;51.480;7.006;2022-07-10T00:19:45;101961.94;;;17.91;73.99
14269;BME280;7218;51.480;7.006;2022-07-10T00:22:15;101967.88;;;17.99;74.43
14269;BME280;7218;51.480;7.006;2022-07-10T00:24:42;101968.88;;;17.95;74.45
14269;BME280;7218;51.480;7.006;2022-07-10T00:27:09;101964.97;;;18.12;73.60
14269;BME280;7218;51.480;7.006;2022-07-10T00:29:36;101955.34;;;18.09;74.00
14269;BME280;7218;51.480;7.006;2022-07-10T00:32:06;101960.50;;;18.14;74.25
14269;BME280;7218;51.480;7.006;2022-07-10T00:34:33;101956.28;;;18.06;74.11
14269;BME280;7218;51.480;7.006;2022-07-10T00:37:00;101952.94;;;17.98;75.47
14269;BME280;7218;51.480;7.006;2022-07-10T00:39:27;101952.03;;;17.99;74.97
14269;BME280;7218;51.480;7.006;2022-07-10T00:41:54;101941.53;;;17.98;75.70
14269;BME280;7218;51.480;7.006;2022-07-10T00:48:15;101947.19;;;18.18;75.04
14269;BME280;7218;51.480;7.006;2022-07-10T00:50:42;101935.94;;;18.12;75.03
14269;BME280;7218;51.480;7.006;2022-07-10T00:53:11;101933.34;;;18.08;74.42
14269;BME280;7218;51.480;7.006;2022-07-10T00:55:39;101936.81;;;18.12;74.27
14269;BME280;7218;51.480;7.006;2022-07-10T00:58:07;101942.78;;;18.19;74.12
14269;BME280;7218;51.480;7.006;2022-07-10T01:00:34;101942.84;;;18.17;74.27
14269;BME280;7218;51.480;7.006;2022-07-10T01:03:03;101937.50;;;18.19;74.54
14269;BME280;7218;51.480;7.006;2022-07-10T01:05:31;101929.44;;;18.25;74.24
14269;BME280;7218;51.480;7.006;2022-07-10T01:07:58;101937.38;;;18.23;74.85
14269;BME280;7218;51.480;7.006;2022-07-10T01:10:24;101928.63;;;18.23;74.59
14269;BME280;7218;51.480;7.006;2022-07-10T01:12:52;101927.78;;;18.21;75.52
14269;BME280;7218;51.480;7.006;2022-07-10T01:15:20;101926.78;;;18.25;74.17
14269;BME280;7218;51.480;7.006;2022-07-10T01:17:46;101927.03;;;18.16;74.77
14269;BME280;7218;51.480;7.006;2022-07-10T01:20:14;101931.19;;;18.24;74.29
14269;BME280;7218;51.480;7.006;2022-07-10T01:22:43;101922.50;;;18.21;73.27
14269;BME280;7218;51.480;7.006;2022-07-10T01:25:09;101921.78;;;18.14;74.25
14269;BME280;7218;51.480;7.006;2022-07-10T01:27:37;101922.72;;;18.12;74.22
14269;BME280;7218;51.480;7.006;2022-07-10T01:30:05;101916.56;;;18.13;74.53
14269;BME280;7218;51.480;7.006;2022-07-10T01:32:39;101909.69;;;18.04;74.39
14269;BME280;7218;51.480;7.006;2022-07-10T01:35:06;101902.53;;;18.09;74.00
14269;BME280;7218;51.480;7.006;2022-07-10T01:37:33;101898.84;;;17.79;75.45
14269;BME280;7218;51.480;7.006;2022-07-10T01:40:02;101900.97;;;18.02;74.97
14269;BME280;7218;51.480;7.006;2022-07-10T01:42:29;101901.94;;;17.98;75.22
14269;BME280;7218;51.480;7.006;2022-07-10T01:44:55;101896.69;;;17.96;75.03
14269;BME280;7218;51.480;7.006;2022-07-10T01:47:23;101895.75;;;17.99;75.13
14269;BME280;7218;51.480;7.006;2022-07-10T01:49:52;101900.97;;;18.02;74.96
14269;BME280;7218;51.480;7.006;2022-07-10T01:52:19;101899.13;;;18.04;75.38
14269;BME280;7218;51.480;7.006;2022-07-10T01:54:45;101897.56;;;17.97;75.77
14269;BME280;7218;51.480;7.006;2022-07-10T01:57:14;101893.75;;;18.08;75.53
14269;BME280;7218;51.480;7.006;2022-07-10T01:59:41;101890.09;;;18.14;74.64
14269;BME280;7218;51.480;7.006;2022-07-10T02:02:08;101887.41;;;18.16;74.29
14269;BME280;7218;51.480;7.006;2022-07-10T02:04:35;101881.72;;;18.32;73.39
14269;BME280;7218;51.480;7.006;2022-07-10T02:07:07;101892.84;;;18.43;72.97
14269;BME280;7218;51.480;7.006;2022-07-10T02:09:33;101885.09;;;18.37;73.41
14269;BME280;7218;51.480;7.006;2022-07-10T02:12:00;101882.63;;;18.31;73.00
14269;BME280;7218;51.480;7.006;2022-07-10T02:14:29;101880.72;;;18.36;73.80
14269;BME280;7218;51.480;7.006;2022-07-10T02:16:55;101881.84;;;18.28;74.38
14269;BME280;7218;51.480;7.006;2022-07-10T02:19:22;101884.25;;;18.01;75.08
14269;BME280;7218;51.480;7.006;2022-07-10T02:21:49;101881.28;;;18.14;73.58
14269;BME280;7218;51.480;7.006;2022-07-10T02:24:16;101874.75;;;17.94;75.48
14269;BME280;7218;51.480;7.006;2022-07-10T02:26:43;101871.66;;;18.13;73.93
14269;BME280;7218;51.480;7.006;2022-07-10T02:29:10;101868.03;;;18.17;73.76
14269;BME280;7218;51.480;7.006;2022-07-10T02:31:38;101883.09;;;18.13;74.42
14269;BME280;7218;51.480;7.006;2022-07-10T02:34:06;101876.94;;;18.13;74.72
14269;BME280;7218;51.480;7.006;2022-07-10T02:36:33;101882.66;;;17.94;75.20
14269;BME280;7218;51.480;7.006;2022-07-10T02:39:00;101880.97;;;17.92;75.43
14269;BME280;7218;51.480;7.006;2022-07-10T02:41:27;101871.09;;;18.00;74.88
14269;BME280;7218;51.480;7.006;2022-07-10T02:43:54;101869.06;;;17.74;76.04
14269;BME280;7218;51.480;7.006;2022-07-10T02:46:20;101868.38;;;17.66;76.81
14269;BME280;7218;51.480;7.006;2022-07-10T02:48:49;101868.47;;;17.63;77.74
14269;BME280;7218;51.480;7.006;2022-07-10T02:51:15;101869.41;;;17.59;77.31
14269;BME280;7218;51.480;7.006;2022-07-10T02:53:42;101859.63;;;17.64;76.88
14269;BME280;7218;51.480;7.006;2022-07-10T02:56:09;101858.69;;;17.68;77.15
14269;BME280;7218;51.480;7.006;2022-07-10T02:58:37;101856.81;;;17.73;77.02
14269;BME280;7218;51.480;7.006;2022-07-10T03:01:05;101856.56;;;17.82;76.83
14269;BME280;7218;51.480;7.006;2022-07-10T03:03:31;101868.16;;;17.77;77.17
14269;BME280;7218;51.480;7.006;2022-07-10T03:06:00;101875.81;;;17.87;76.81
14269;BME280;7218;51.480;7.006;2022-07-10T03:08:26;101873.56;;;17.71;76.81
14269;BME280;7218;51.480;7.006;2022-07-10T03:10:53;101870.66;;;17.81;77.65
14269;BME280;7218;51.480;7.006;2022-07-10T03:13:20;101862.28;;;17.64;78.27
14269;BME280;7218;51.480;7.006;2022-07-10T03:15:47;101872.00;;;17.62;78.00
14269;BME280;7218;51.480;7.006;2022-07-10T03:18:14;101869.38;;;17.62;78.49
14269;BME280;7218;51.480;7.006;2022-07-10T03:20:40;101864.28;;;17.53;78.74
14269;BME280;7218;51.480;7.006;2022-07-10T03:23:09;101858.19;;;17.49;79.34
14269;BME280;7218;51.480;7.006;2022-07-10T03:25:35;101862.88;;;17.37;79.99
14269;BME280;7218;51.480;7.006;2022-07-10T03:28:02;101869.06;;;17.34;79.96
14269;BME280;7218;51.480;7.006;2022-07-10T03:30:29;101860.13;;;17.43;79.05
14269;BME280;7218;51.480;7.006;2022-07-10T03:32:56;101860.38;;;17.31;79.43
14269;BME280;7218;51.480;7.006;2022-07-10T03:35:23;101862.88;;;17.37;79.01
14269;BME280;7218;51.480;7.006;2022-07-10T03:37:50;101860.38;;;17.31;79.99
14269;BME280;7218;51.480;7.006;2022-07-10T03:40:19;101866.28;;;17.42;79.52
14269;BME280;7218;51.480;7.006;2022-07-10T03:42:45;101865.31;;;17.44;79.30
14269;BME280;7218;51.480;7.006;2022-07-10T03:45:12;101866.31;;;17.39;79.60
14269;BME280;7218;51.480;7.006;2022-07-10T03:47:39;101860.38;;;17.29;79.38
14269;BME280;7218;51.480;7.006;2022-07-10T03:50:06;101864.75;;;17.32;79.36
14269;BME280;7218;51.480;7.006;2022-07-10T03:52:32;101868.19;;;17.35;79.26
14269;BME280;7218;51.480;7.006;2022-07-10T03:54:59;101865.81;;;17.23;80.06
14269;BME280;7218;51.480;7.006;2022-07-10T03:57:27;101871.16;;;17.18;80.70
14269;BME280;7218;51.480;7.006;2022-07-10T04:00:12;101866.50;;;17.31;80.11
14269;BME280;7218;51.480;7.006;2022-07-10T04:02:39;101869.25;;;17.27;80.11
14269;BME280;7218;51.480;7.006;2022-07-10T04:05:06;101869.19;;;17.30;80.11
14269;BME280;7218;51.480;7.006;2022-07-10T04:07:33;101877.59;;;17.47;78.77
14269;BME280;7218;51.480;7.006;2022-07-10T04:10:00;101874.84;;;17.51;79.33
14269;BME280;7218;51.480;7.006;2022-07-10T04:12:28;101869.72;;;17.45;79.44
14269;BME280;7218;51.480;7.006;2022-07-10T04:14:55;101870.47;;;17.50;80.02
14269;BME280;7218;51.480;7.006;2022-07-10T04:17:21;101880.09;;;17.53;79.55
14269;BME280;7218;51.480;7.006;2022-07-10T04:19:48;101871.59;;;17.39;80.58
14269;BME280;7218;51.480;7.006;2022-07-10T04:22:15;101872.34;;;17.45;79.60
14269;BME280;7218;51.480;7.006;2022-07-10T04:24:41;101869.66;;;17.48;80.14
14269;BME280;7218;51.480;7.006;2022-07-10T04:27:08;101866.94;;;17.51;80.49
14269;BME280;7218;51.480;7.006;2022-07-10T04:29:36;101869.16;;;17.31;81.55
14269;BME280;7218;51.480;7.006;2022-07-10T04:32:04;101868.69;;;17.52;80.64
14269;BME280;7218;51.480;7.006;2022-07-10T04:34:30;101868.59;;;17.55;80.42
14269;BME280;7218;51.480;7.006;2022-07-10T04:36:57;101871.25;;;17.54;80.46
14269;BME280;7218;51.480;7.006;2022-07-10T04:39:24;101856.59;;;17.42;81.74
14269;BME280;7218;51.480;7.006;2022-07-10T04:41:51;101865.50;;;17.38;82.59
14269;BME280;7218;51.480;7.006;2022-07-10T04:44:20;101874.31;;;17.36;81.55
14269;BME280;7218;51.480;7.006;2022-07-10T04:46:48;101868.41;;;17.25;81.68
14269;BME280;7218;51.480;7.006;2022-07-10T04:49:15;101860.06;;;17.44;81.10
14269;BME280;7218;51.480;7.006;2022-07-10T04:51:43;101854.66;;;17.50;81.16
14269;BME280;7218;51.480;7.006;2022-07-10T04:54:10;101858.06;;;17.54;80.09
14269;BME280;7218;51.480;7.006;2022-07-10T04:56:37;101864.91;;;17.64;79.81
14269;BME280;7218;51.480;7.006;2022-07-10T04:59:04;101869.13;;;17.73;79.55
14269;BME280;7218;51.480;7.006;2022-07-10T05:01:31;101864.63;;;17.76;78.77
14269;BME280;7218;51.480;7.006;2022-07-10T05:03:59;101868.31;;;17.69;79.76
14269;BME280;7218;51.480;7.006;2022-07-10T05:06:26;101876.31;;;17.66;79.94
14269;BME280;7218;51.480;7.006;2022-07-10T05:08:53;101878.06;;;17.66;78.93
14269;BME280;7218;51.480;7.006;2022-07-10T05:11:20;101878.22;;;17.59;80.66
14269;BME280;7218;51.480;7.006;2022-07-10T05:13:47;101869.69;;;17.47;80.43
14269;BME280;7218;51.480;7.006;2022-07-10T05:16:15;101873.66;;;17.66;79.48
14269;BME280;7218;51.480;7.006;2022-07-10T05:18:42;101871.72;;;17.74;79.73
14269;BME280;7218;51.480;7.006;2022-07-10T05:21:10;101871.91;;;17.67;79.74
14269;BME280;7218;51.480;7.006;2022-07-10T05:23:38;101872.31;;;17.85;79.55
14269;BME280;7218;51.480;7.006;2022-07-10T05:26:05;101864.56;;;18.15;77.32
14269;BME280;7218;51.480;7.006;2022-07-10T05:28:32;101864.41;;;18.21;77.61
14269;BME280;7218;51.480;7.006;2022-07-10T05:30:59;101874.09;;;18.20;77.20
14269;BME280;7218;51.480;7.006;2022-07-10T05:33:26;101871.16;;;18.32;77.04
14269;BME280;7218;51.480;7.006;2022-07-10T05:35:54;101876.00;;;18.14;77.69
14269;BME280;7218;51.480;7.006;2022-07-10T05:38:22;101875.13;;;18.15;78.81
14269;BME280;7218;51.480;7.006;2022-07-10T05:40:50;101879.50;;;18.16;78.42
14269;BME280;7218;51.480;7.006;2022-07-10T05:43:32;101878.06;;;18.38;77.80
14269;BME280;7218;51.480;7.006;2022-07-10T05:46:00;101884.38;;;18.31;79.04
14269;BME280;7218;51.480;7.006;2022-07-10T05:48:29;101888.28;;;18.50;76.95
14269;BME280;7218;51.480;7.006;2022-07-10T05:50:55;101892.44;;;18.60;77.65
14269;BME280;7218;51.480;7.006;2022-07-10T05:53:24;101883.91;;;18.49;78.23
14269;BME280;7218;51.480;7.006;2022-07-10T05:55:51;101882.72;;;18.62;76.41
14269;BME280;7218;51.480;7.006;2022-07-10T05:58:17;101876.66;;;18.89;76.15
14269;BME280;7218;51.480;7.006;2022-07-10T06:00:44;101875.50;;;18.98;74.66
14269;BME280;7218;51.480;7.006;2022-07-10T06:03:11;101876.03;;;18.80;73.95
14269;BME280;7218;51.480;7.006;2022-07-10T06:05:38;101880.34;;;18.84;73.31
14269;BME280;7218;51.480;7.006;2022-07-10T06:08:05;101883.16;;;18.78;74.08
14269;BME280;7218;51.480;7.006;2022-07-10T06:10:34;101887.72;;;18.73;74.44
14269;BME280;7218;51.480;7.006;2022-07-10T06:13:00;101881.97;;;18.57;73.82
14269;BME280;7218;51.480;7.006;2022-07-10T06:15:27;101887.03;;;18.65;74.50
14269;BME280;7218;51.480;7.006;2022-07-10T06:17:56;101880.88;;;18.64;74.07
14269;BME280;7218;51.480;7.006;2022-07-10T06:20:24;101890.03;;;18.51;74.73
14269;BME280;7218;51.480;7.006;2022-07-10T06:22:51;101885.38;;;18.62;74.12
14269;BME280;7218;51.480;7.006;2022-07-10T06:25:18;101885.50;;;18.58;74.75
14269;BME280;7218;51.480;7.006;2022-07-10T06:27:46;101882.16;;;18.82;74.19
14269;BME280;7218;51.480;7.006;2022-07-10T06:30:13;101883.69;;;18.58;74.88
14269;BME280;7218;51.480;7.006;2022-07-10T06:32:40;101887.66;;;18.40;74.99
14269;BME280;7218;51.480;7.006;2022-07-10T06:35:07;101884.00;;;18.46;75.04
14269;BME280;7218;51.480;7.006;2022-07-10T06:37:35;101892.16;;;18.37;75.22
14269;BME280;7218;51.480;7.006;2022-07-10T06:40:02;101883.25;;;18.75;73.47
14269;BME280;7218;51.480;7.006;2022-07-10T06:42:30;101886.88;;;18.71;73.60
14269;BME280;7218;51.480;7.006;2022-07-10T06:44:58;101890.38;;;18.71;72.57
14269;BME280;7218;51.480;7.006;2022-07-10T06:47:25;101887.19;;;18.59;72.55
14269;BME280;7218;51.480;7.006;2022-07-10T06:50:09;101889.78;;;18.62;73.40
14269;BME280;7218;51.480;7.006;2022-07-10T06:52:36;101893.41;;;18.58;74.22
14269;BME280;7218;51.480;7.006;2022-07-10T06:55:04;101889.09;;;18.86;73.25
14269;BME280;7218;51.480;7.006;2022-07-10T06:57:34;101885.25;;;18.98;71.67
14269;BME280;7218;51.480;7.006;2022-07-10T07:00:03;101874.44;;;19.05;71.58
14269;BME280;7218;51.480;7.006;2022-07-10T07:02:30;101888.09;;;19.21;71.44
14269;BME280;7218;51.480;7.006;2022-07-10T07:04:57;101883.81;;;19.17;72.45
14269;BME280;7218;51.480;7.006;2022-07-10T07:07:24;101884.28;;;19.00;71.05
14269;BME280;7218;51.480;7.006;2022-07-10T07:09:50;101888.22;;;19.16;71.19
14269;BME280;7218;51.480;7.006;2022-07-10T07:12:17;101887.34;;;19.16;71.32
14269;BME280;7218;51.480;7.006;2022-07-10T07:14:44;101891.81;;;19.14;71.28
14269;BME280;7218;51.480;7.006;2022-07-10T07:17:14;101892.59;;;19.17;70.53
14269;BME280;7218;51.480;7.006;2022-07-10T07:19:47;101893.28;;;19.24;70.68
14269;BME280;7218;51.480;7.006;2022-07-10T07:22:30;101896.09;;;19.18;69.70
14269;BME280;7218;51.480;7.006;2022-07-10T07:25:14;101888.25;;;19.15;70.32
14269;BME280;7218;51.480;7.006;2022-07-10T07:27:40;101900.66;;;19.13;69.33
14269;BME280;7218;51.480;7.006;2022-07-10T07:30:09;101895.28;;;19.16;69.74
14269;BME280;7218;51.480;7.006;2022-07-10T07:36:09;101900.38;;;18.92;71.98
14269;BME280;7218;51.480;7.006;2022-07-10T07:39:10;101903.78;;;19.27;71.24
14269;BME280;7218;51.480;7.006;2022-07-10T07:41:41;101912.78;;;19.20;70.90
14269;BME280;7218;51.480;7.006;2022-07-10T07:44:09;101906.75;;;19.16;73.32
14269;BME280;7218;51.480;7.006;2022-07-10T07:46:53;101908.94;;;19.31;74.75
14269;BME280;7218;51.480;7.006;2022-07-10T07:49:41;101911.47;;;19.05;77.55
14269;BME280;7218;51.480;7.006;2022-07-10T07:52:08;101918.50;;;19.06;78.46
14269;BME280;7218;51.480;7.006;2022-07-10T07:54:34;101913.88;;;19.13;79.63
14269;BME280;7218;51.480;7.006;2022-07-10T07:57:00;101916.63;;;19.10;79.28
14269;BME280;7218;51.480;7.006;2022-07-10T07:59:27;101919.66;;;19.27;79.81
14269;BME280;7218;51.480;7.006;2022-07-10T08:01:53;101927.53;;;19.28;79.30
14269;BME280;7218;51.480;7.006;2022-07-10T08:04:20;101928.91;;;19.12;80.67
14269;BME280;7218;51.480;7.006;2022-07-10T08:06:47;101928.84;;;19.14;81.52
14269;BME280;7218;51.480;7.006;2022-07-10T08:09:17;101929.69;;;19.14;79.59
14269;BME280;7218;51.480;7.006;2022-07-10T08:11:43;101920.25;;;19.06;80.76
14269;BME280;7218;51.480;7.006;2022-07-10T08:14:10;101932.03;;;18.94;82.37
14269;BME280;7218;51.480;7.006;2022-07-10T08:16:36;101915.44;;;18.57;83.19
14269;BME280;7218;51.480;7.006;2022-07-10T08:19:02;101923.03;;;18.33;86.27
14269;BME280;7218;51.480;7.006;2022-07-10T08:21:29;101915.50;;;18.54;88.15
14269;BME280;7218;51.480;7.006;2022-07-10T08:23:58;101915.59;;;18.83;88.26
14269;BME280;7218;51.480;7.006;2022-07-10T08:26:24;101921.81;;;18.82;88.07
14269;BME280;7218;51.480;7.006;2022-07-10T08:28:51;101915.47;;;18.55;88.42
14269;BME280;7218;51.480;7.006;2022-07-10T08:31:17;101915.56;;;18.50;91.41
14269;BME280;7218;51.480;7.006;2022-07-10T08:33:44;101912.47;;;18.69;89.46
14269;BME280;7218;51.480;7.006;2022-07-10T08:36:11;101911.97;;;18.55;89.43
14269;BME280;7218;51.480;7.006;2022-07-10T08:38:38;101913.50;;;18.63;90.78
14269;BME280;7218;51.480;7.006;2022-07-10T08:41:06;101910.09;;;18.58;90.17
14269;BME280;7218;51.480;7.006;2022-07-10T08:43:33;101909.06;;;18.98;91.89
14269;BME280;7218;51.480;7.006;2022-07-10T08:46:00;101909.88;;;18.98;92.29
14269;BME280;7218;51.480;7.006;2022-07-10T08:48:28;101901.00;;;19.31;92.16
14269;BME280;7218;51.480;7.006;2022-07-10T08:51:02;101915.59;;;19.46;91.43
14269;BME280;7218;51.480;7.006;2022-07-10T08:53:31;101905.69;;;19.22;91.29
14269;BME280;7218;51.480;7.006;2022-07-10T08:55:58;101904.03;;;19.49;90.19
14269;BME280;7218;51.480;7.006;2022-07-10T08:58:27;101902.75;;;19.32;89.90
14269;BME280;7218;51.480;7.006;2022-07-10T09:00:53;101900.81;;;19.38;90.16
14269;BME280;7218;51.480;7.006;2022-07-10T09:03:20;101899.59;;;19.49;90.80
14269;BME280;7218;51.480;7.006;2022-07-10T09:05:47;101902.47;;;19.42;88.96
14269;BME280;7218;51.480;7.006;2022-07-10T09:08:23;101896.34;;;19.69;87.95
14269;BME280;7218;51.480;7.006;2022-07-10T09:10:52;101897.97;;;19.44;87.57
14269;BME280;7218;51.480;7.006;2022-07-10T09:13:18;101895.00;;;19.56;86.90
14269;BME280;7218;51.480;7.006;2022-07-10T09:15:49;101895.31;;;19.73;86.33
14269;BME280;7218;51.480;7.006;2022-07-10T09:18:18;101885.38;;;19.81;86.10
14269;BME280;7218;51.480;7.006;2022-07-10T09:20:45;101889.03;;;20.03;84.40
14269;BME280;7218;51.480;7.006;2022-07-10T09:23:16;101887.28;;;20.30;83.59
14269;BME280;7218;51.480;7.006;2022-07-10T09:25:44;101888.69;;;20.14;84.02
14269;BME280;7218;51.480;7.006;2022-07-10T09:28:12;101888.13;;;20.32;83.05
14269;BME280;7218;51.480;7.006;2022-07-10T09:30:39;101887.31;;;20.29;81.83
14269;BME280;7218;51.480;7.006;2022-07-10T09:33:19;101892.47;;;20.07;82.72
14269;BME280;7218;51.480;7.006;2022-07-10T09:36:04;101884.34;;;20.39;83.17
14269;BME280;7218;51.480;7.006;2022-07-10T09:38:53;101884.34;;;20.39;80.13
14269;BME280;7218;51.480;7.006;2022-07-10T09:41:22;101879.03;;;20.39;79.35
14269;BME280;7218;51.480;7.006;2022-07-10T09:43:49;101876.91;;;20.23;79.65
14269;BME280;7218;51.480;7.006;2022-07-10T09:46:17;101892.78;;;20.24;78.96
14269;BME280;7218;51.480;7.006;2022-07-10T09:48:45;101881.03;;;20.06;80.44
14269;BME280;7218;51.480;7.006;2022-07-10T09:51:12;101885.94;;;19.91;81.30
14269;BME280;7218;51.480;7.006;2022-07-10T09:53:40;101889.38;;;19.66;82.37
14269;BME280;7218;51.480;7.006;2022-07-10T09:56:08;101882.75;;;19.22;85.09
14269;BME280;7218;51.480;7.006;2022-07-10T09:58:35;101879.66;;;19.38;85.15
14269;BME280;7218;51.480;7.006;2022-07-10T10:01:03;101875.84;;;19.75;84.11
14269;BME280;7218;51.480;7.006;2022-07-10T10:03:33;101873.63;;;19.90;82.97
14269;BME280;7218;51.480;7.006;2022-07-10T10:06:03;101872.00;;;20.12;82.07
14269;BME280;7218;51.480;7.006;2022-07-10T10:08:37;101876.56;;;20.59;81.10
14269;BME280;7218;51.480;7.006;2022-07-10T10:11:13;101872.13;;;20.35;80.40
14269;BME280;7218;51.480;7.006;2022-07-10T10:13:41;101864.66;;;20.46;79.69
14269;BME280;7218;51.480;7.006;2022-07-10T10:16:09;101866.13;;;20.29;82.07
14269;BME280;7218;51.480;7.006;2022-07-10T10:18:36;101862.19;;;20.42;81.28
14269;BME280;7218;51.480;7.006;2022-07-10T10:21:26;101869.13;;;20.18;82.46
14269;BME280;7218;51.480;7.006;2022-07-10T10:23:53;101869.34;;;20.38;83.56
14269;BME280;7218;51.480;7.006;2022-07-10T10:26:21;101865.97;;;19.53;87.33
14269;BME280;7218;51.480;7.006;2022-07-10T10:28:48;101865.63;;;19.63;87.43
14269;BME280;7218;51.480;7.006;2022-07-10T10:31:15;101867.00;;;19.76;87.49
14269;BME280;7218;51.480;7.006;2022-07-10T10:33:43;101867.06;;;20.01;84.26
14269;BME280;7218;51.480;7.006;2022-07-10T10:36:12;101860.75;;;20.32;83.80
14269;BME280;7218;51.480;7.006;2022-07-10T10:39:03;101851.44;;;20.70;82.35
14269;BME280;7218;51.480;7.006;2022-07-10T10:41:37;101859.78;;;20.59;82.77
14269;BME280;7218;51.480;7.006;2022-07-10T10:44:27;101862.22;;;20.40;86.88
14269;BME280;7218;51.480;7.006;2022-07-10T10:47:02;101854.28;;;20.40;88.10
14269;BME280;7218;51.480;7.006;2022-07-10T10:52:24;101858.03;;;19.81;92.28
14269;BME280;7218;51.480;7.006;2022-07-10T10:55:08;101854.38;;;20.11;92.71
14269;BME280;7218;51.480;7.006;2022-07-10T10:57:44;101841.72;;;20.45;92.56
14269;BME280;7218;51.480;7.006;2022-07-10T11:00:32;101844.63;;;20.62;91.49
14269;BME280;7218;51.480;7.006;2022-07-10T11:03:19;101836.50;;;20.92;91.19
14269;BME280;7218;51.480;7.006;2022-07-10T11:05:48;101835.09;;;20.82;89.05
14269;BME280;7218;51.480;7.006;2022-07-10T11:08:35;101833.63;;;21.21;90.63
14269;BME280;7218;51.480;7.006;2022-07-10T11:11:38;101832.69;;;21.22;89.30
14269;BME280;7218;51.480;7.006;2022-07-10T11:14:09;101828.41;;;20.72;90.85
14269;BME280;7218;51.480;7.006;2022-07-10T11:16:37;101834.84;;;20.88;92.13
14269;BME280;7218;51.480;7.006;2022-07-10T11:19:04;101831.19;;;20.92;91.52
14269;BME280;7218;51.480;7.006;2022-07-10T11:21:45;101825.75;;;20.95;91.68
14269;BME280;7218;51.480;7.006;2022-07-10T11:24:23;101815.31;;;21.37;92.91
14269;BME280;7218;51.480;7.006;2022-07-10T11:27:02;101818.53;;;21.67;89.59
14269;BME280;7218;51.480;7.006;2022-07-10T11:29:36;101811.25;;;21.92;86.53
14269;BME280;7218;51.480;7.006;2022-07-10T11:32:03;101819.22;;;21.92;86.95
14269;BME280;7218;51.480;7.006;2022-07-10T11:34:34;101813.94;;;21.70;87.76
14269;BME280;7218;51.480;7.006;2022-07-10T11:37:01;101821.16;;;21.00;90.69
14269;BME280;7218;51.480;7.006;2022-07-10T11:39:28;101820.06;;;21.05;92.48
14269;BME280;7218;51.480;7.006;2022-07-10T11:41:54;101822.50;;;20.63;94.23
14269;BME280;7218;51.480;7.006;2022-07-10T11:44:22;101829.25;;;20.47;93.99
14269;BME280;7218;51.480;7.006;2022-07-10T11:46:49;101825.50;;;20.78;92.46
14269;BME280;7218;51.480;7.006;2022-07-10T11:49:16;101826.66;;;21.40;90.12
14269;BME280;7218;51.480;7.006;2022-07-10T11:51:43;101820.00;;;21.52;87.64
14269;BME280;7218;51.480;7.006;2022-07-10T11:54:10;101827.28;;;21.25;90.36
14269;BME280;7218;51.480;7.006;2022-07-10T11:56:38;101827.19;;;20.57;93.05
14269;BME280;7218;51.480;7.006;2022-07-10T11:59:08;101827.22;;;20.55;96.59
14269;BME280;7218;51.480;7.006;2022-07-10T12:01:41;101829.25;;;20.47;97.15
14269;BME280;7218;51.480;7.006;2022-07-10T12:04:09;101834.84;;;20.13;99.53
14269;BME280;7218;51.480;7.006;2022-07-10T12:06:37;101833.91;;;20.16;99.29
14269;BME280;7218;51.480;7.006;2022-07-10T12:09:05;101823.16;;;20.70;99.14
14269;BME280;7218;51.480;7.006;2022-07-10T12:11:33;101819.75;;;21.36;95.09
14269;BME280;7218;51.480;7.006;2022-07-10T12:14:11;101824.22;;;22.21;92.56
14269;BME280;7218;51.480;7.006;2022-07-10T12:16:41;101817.19;;;22.80;88.37
14269;BME280;7218;51.480;7.006;2022-07-10T12:19:11;101824.97;;;23.40;87.80
14269;BME280;7218;51.480;7.006;2022-07-10T12:21:38;101812.09;;;23.12;85.56
14269;BME280;7218;51.480;7.006;2022-07-10T12:24:08;101818.19;;;22.77;87.38
14269;BME280;7218;51.480;7.006;2022-07-10T12:26:36;101821.53;;;22.42;89.51
14269;BME280;7218;51.480;7.006;2022-07-10T12:29:04;101813.50;;;21.81;91.60
14269;BME280;7218;51.480;7.006;2022-07-10T12:31:32;101820.06;;;21.51;94.00
14269;BME280;7218;51.480;7.006;2022-07-10T12:34:02;101816.91;;;21.63;93.05
14269;BME280;7218;51.480;7.006;2022-07-10T12:36:43;101815.72;;;21.48;92.44
14269;BME280;7218;51.480;7.006;2022-07-10T12:39:10;101808.28;;;22.21;91.61
14269;BME280;7218;51.480;7.006;2022-07-10T12:41:59;101806.63;;;22.97;85.34
14269;BME280;7218;51.480;7.006;2022-07-10T12:44:31;101801.69;;;24.16;81.89
14269;BME280;7218;51.480;7.006;2022-07-10T12:47:00;101802.00;;;24.44;75.57
14269;BME280;7218;51.480;7.006;2022-07-10T12:49:28;101803.25;;;24.37;76.50
14269;BME280;7218;51.480;7.006;2022-07-10T12:51:55;101801.94;;;24.61;73.48
14269;BME280;7218;51.480;7.006;2022-07-10T12:54:31;101796.28;;;25.16;73.34
14269;BME280;7218;51.480;7.006;2022-07-10T12:56:58;101799.81;;;25.32;73.18
14269;BME280;7218;51.480;7.006;2022-07-10T12:59:27;101809.19;;;24.92;70.74
14269;BME280;7218;51.480;7.006;2022-07-10T13:01:54;101802.31;;;25.04;71.53
14269;BME280;7218;51.480;7.006;2022-07-10T13:04:23;101790.13;;;25.77;66.95
14269;BME280;7218;51.480;7.006;2022-07-10T13:06:50;101795.50;;;25.61;66.31
14269;BME280;7218;51.480;7.006;2022-07-10T13:09:18;101791.47;;;25.38;67.22
14269;BME280;7218;51.480;7.006;2022-07-10T13:11:45;101793.19;;;24.42;68.51
14269;BME280;7218;51.480;7.006;2022-07-10T13:14:11;101792.19;;;24.27;70.98
14269;BME280;7218;51.480;7.006;2022-07-10T13:16:41;101783.97;;;25.45;68.70
14269;BME280;7218;51.480;7.006;2022-07-10T13:19:07;101792.84;;;25.91;65.38